TAP1858 LPPT-LPPD
Flight info
| Callsign | TAP1858 |
|---|---|
| Flight time | N/A |
| Altitude | 35000 |
| Route | ZIFOG DCT KOMUT/M079F360 DCT 38N020W DCT BEKUN DCT OMOBI |
| Aircraft | A21N/M-SDE3FGHIRWY/LB1 |
Departure
| Time | 2026-05-04 09:51 |
|---|---|
| Airport | Lisbon Humberto Delgado Airport (LPPT) |
Arrival
| Time | N/A |
|---|---|
| Airport | João Paulo II Airport (LPPD) |
| Time | Latitude | Longitude | Altitude | Speed | Heading |
|---|---|---|---|---|---|
| 2026-05-04 09:35 | 38.76741 | -9.13897 | 344 ft | 0 kts | 258° |
| 2026-05-04 09:46 | 38.76770 | -9.13820 | 353 ft | 4 kts | 199° |
| 2026-05-04 09:46 | 38.76789 | -9.13817 | 355 ft | 1 kts | 167° |
| 2026-05-04 09:46 | 38.76792 | -9.13818 | 355 ft | 0 kts | 167° |
| 2026-05-04 09:49 | 38.76587 | -9.13843 | 347 ft | 13 kts | 252° |
| 2026-05-04 09:49 | 38.76567 | -9.13968 | 354 ft | 14 kts | 259° |
| 2026-05-04 09:49 | 38.76553 | -9.14093 | 344 ft | 14 kts | 275° |
| 2026-05-04 09:51 | 38.77483 | -9.13946 | 365 ft | 121 kts | 22° |
| 2026-05-04 09:51 | 38.78428 | -9.13440 | 366 ft | 165 kts | 26° |
| 2026-05-04 09:51 | 38.79569 | -9.12812 | 625 ft | 182 kts | 18° |
| 2026-05-04 09:51 | 38.80743 | -9.12193 | 1344 ft | 182 kts | 19° |
| 2026-05-04 09:52 | 38.81886 | -9.11486 | 2230 ft | 185 kts | 28° |
| 2026-05-04 09:52 | 38.83015 | -9.10617 | 2646 ft | 196 kts | 29° |
| 2026-05-04 09:52 | 38.84257 | -9.09660 | 2776 ft | 220 kts | 28° |
| 2026-05-04 09:52 | 38.85639 | -9.08593 | 2978 ft | 245 kts | 29° |
| 2026-05-04 09:53 | 38.87137 | -9.07434 | 3584 ft | 255 kts | 29° |
| 2026-05-04 09:53 | 38.88691 | -9.06309 | 4331 ft | 257 kts | 20° |
| 2026-05-04 09:53 | 38.90427 | -9.05827 | 5068 ft | 256 kts | 358° |
| 2026-05-04 09:53 | 38.92201 | -9.06100 | 5740 ft | 259 kts | 348° |
| 2026-05-04 09:54 | 38.93958 | -9.06505 | 6517 ft | 260 kts | 348° |
| 2026-05-04 09:54 | 38.95750 | -9.06918 | 7187 ft | 264 kts | 348° |
| 2026-05-04 09:54 | 38.97571 | -9.07335 | 7901 ft | 267 kts | 348° |
| 2026-05-04 09:54 | 38.99377 | -9.07919 | 8572 ft | 269 kts | 334° |
| 2026-05-04 09:55 | 39.00906 | -9.09294 | 9225 ft | 271 kts | 312° |
| 2026-05-04 09:55 | 39.01910 | -9.11359 | 9907 ft | 275 kts | 290° |